createdAt,value
2022-08-26T00:01:52.904Z,100040.22
2022-08-26T00:04:22.275Z,100042.13
2022-08-26T00:06:49.555Z,100036.34
2022-08-26T00:09:16.983Z,100044.38
2022-08-26T00:11:44.718Z,100038.00
2022-08-26T00:14:13.095Z,100035.19
2022-08-26T00:16:47.606Z,100041.84
2022-08-26T00:19:16.614Z,100031.34
2022-08-26T00:21:44.185Z,100020.00
2022-08-26T00:24:11.425Z,100028.66
2022-08-26T00:26:38.980Z,100024.28
2022-08-26T00:29:09.364Z,100020.13
2022-08-26T00:31:36.818Z,100018.22
2022-08-26T00:34:06.338Z,100021.03
2022-08-26T00:36:33.707Z,100020.22
2022-08-26T00:39:00.865Z,100016.38
2022-08-26T00:41:29.659Z,100029.75
2022-08-26T00:43:57.434Z,100030.66
2022-08-26T00:46:28.433Z,100027.09
2022-08-26T00:49:02.989Z,100025.28
2022-08-26T00:51:38.297Z,100020.97
2022-08-26T00:54:10.682Z,100013.50
2022-08-26T00:56:43.774Z,100017.09
2022-08-26T00:59:17.180Z,100017.47
2022-08-26T01:01:46.020Z,100015.97
2022-08-26T01:04:19.386Z,100009.72
2022-08-26T01:06:50.488Z,100003.47
2022-08-26T01:09:19.226Z,100010.53
2022-08-26T01:11:49.022Z,100006.91
2022-08-26T01:14:20.165Z,100003.09
2022-08-26T01:16:48.453Z,100012.38
2022-08-26T01:19:20.838Z,100008.56
2022-08-26T01:21:56.437Z,100006.81
2022-08-26T01:24:28.760Z,100001.84
2022-08-26T01:26:57.867Z,100007.53
2022-08-26T01:29:25.506Z,99999.19
2022-08-26T01:31:55.442Z,100007.53
2022-08-26T01:34:26.081Z,100008.31
2022-08-26T01:36:59.298Z,100003.66
2022-08-26T01:39:28.961Z,100009.78
2022-08-26T01:41:57.678Z,100006.38
2022-08-26T01:44:34.702Z,100008.53
2022-08-26T01:47:02.660Z,100006.25
2022-08-26T01:49:35.311Z,100005.13
2022-08-26T01:52:05.370Z,100003.94
2022-08-26T01:54:36.077Z,100010.28
2022-08-26T01:57:04.274Z,100012.25
2022-08-26T01:59:31.640Z,100020.94
2022-08-26T02:01:59.356Z,100014.06
2022-08-26T02:04:31.184Z,100018.28
2022-08-26T02:06:58.348Z,100016.47
2022-08-26T02:09:26.962Z,100021.91
2022-08-26T02:11:55.667Z,100020.00
2022-08-26T02:14:30.472Z,100014.19
2022-08-26T02:16:58.207Z,100010.31
2022-08-26T02:19:29.448Z,100008.75
2022-08-26T02:22:00.634Z,100005.91
2022-08-26T02:24:44.639Z,100005.91
2022-08-26T02:27:13.462Z,100009.59
2022-08-26T02:29:45.754Z,100008.44
2022-08-26T02:32:13.559Z,100005.22
2022-08-26T02:34:46.633Z,100008.03
2022-08-26T02:37:14.102Z,100006.25
2022-08-26T02:39:42.909Z,100004.72
2022-08-26T02:42:10.785Z,100000.66
2022-08-26T02:44:39.522Z,100006.13
2022-08-26T02:47:07.915Z,100003.88
2022-08-26T02:49:37.718Z,99999.38
2022-08-26T02:52:05.030Z,99994.63
2022-08-26T02:54:32.835Z,99994.88
2022-08-26T02:57:01.276Z,99995.94
2022-08-26T02:59:29.217Z,100001.75
2022-08-26T03:01:58.607Z,99997.94
2022-08-26T03:04:26.277Z,99996.91
2022-08-26T03:06:53.784Z,100001.41
2022-08-26T03:09:23.365Z,99994.03
2022-08-26T03:11:50.979Z,99990.00
2022-08-26T03:14:18.224Z,99986.69
2022-08-26T03:16:48.468Z,99982.28
2022-08-26T03:19:18.040Z,99986.06
2022-08-26T03:21:47.439Z,99985.38
2022-08-26T03:24:15.423Z,99985.72
2022-08-26T03:26:52.361Z,99979.28
2022-08-26T03:29:20.503Z,99988.59
2022-08-26T03:31:48.104Z,99982.88
2022-08-26T03:34:15.590Z,99990.47
2022-08-26T03:36:44.830Z,99987.41
2022-08-26T03:39:14.109Z,99988.72
2022-08-26T03:41:42.097Z,99995.34
2022-08-26T03:44:09.533Z,99992.81
2022-08-26T03:46:38.597Z,99993.97
2022-08-26T03:49:06.495Z,99986.34
2022-08-26T03:51:35.865Z,99988.66
2022-08-26T03:54:08.461Z,99982.22
2022-08-26T03:56:36.102Z,99980.59
2022-08-26T03:59:04.229Z,99986.00
2022-08-26T04:01:32.527Z,99977.44
2022-08-26T04:04:00.325Z,99978.16
2022-08-26T04:06:30.616Z,99982.53
2022-08-26T04:09:00.353Z,99975.41
2022-08-26T04:11:31.066Z,99977.97
2022-08-26T04:14:06.903Z,99977.53
2022-08-26T04:16:35.361Z,99981.38
2022-08-26T04:19:03.553Z,99979.34
2022-08-26T04:21:30.787Z,99976.84
2022-08-26T04:23:58.218Z,99972.31
2022-08-26T04:26:26.162Z,99981.00
2022-08-26T04:28:55.465Z,99975.81
2022-08-26T04:31:22.847Z,99980.56
2022-08-26T04:33:51.159Z,99988.16
2022-08-26T04:36:19.851Z,99982.31
2022-08-26T04:38:47.889Z,99978.06
2022-08-26T04:41:17.228Z,99979.81
2022-08-26T04:43:45.482Z,99979.50
2022-08-26T04:46:18.541Z,99976.81
2022-08-26T04:48:46.673Z,99983.25
2022-08-26T04:51:13.875Z,99979.44
2022-08-26T04:53:41.181Z,99983.06
2022-08-26T04:56:09.706Z,99976.25
2022-08-26T04:58:37.362Z,99974.94
2022-08-26T05:01:04.870Z,99982.25
2022-08-26T05:03:33.885Z,99986.63
2022-08-26T05:06:05.596Z,99978.28
2022-08-26T05:08:32.948Z,99986.63
2022-08-26T05:11:05.710Z,99999.53
2022-08-26T05:13:34.093Z,99989.47
2022-08-26T05:16:04.253Z,99987.31
2022-08-26T05:18:34.352Z,99987.66
2022-08-26T05:21:03.550Z,99996.69
2022-08-26T05:23:32.035Z,99994.03
2022-08-26T05:26:00.417Z,99985.56
2022-08-26T05:28:29.735Z,99988.03
2022-08-26T05:30:57.317Z,99986.69
2022-08-26T05:33:24.774Z,99998.47
2022-08-26T05:35:53.723Z,99998.16
2022-08-26T05:38:21.939Z,99996.28
2022-08-26T05:40:52.702Z,100002.72
2022-08-26T05:43:21.113Z,100001.31
2022-08-26T05:45:50.379Z,99993.69
2022-08-26T05:48:22.824Z,99995.34
2022-08-26T05:50:53.528Z,99994.84
2022-08-26T05:53:22.005Z,100002.50
2022-08-26T05:55:53.022Z,100000.16
2022-08-26T05:58:21.966Z,99992.69
2022-08-26T06:00:58.278Z,99999.69
2022-08-26T06:03:26.005Z,100002.06
2022-08-26T06:05:55.368Z,100005.38
2022-08-26T06:08:22.710Z,99999.66
2022-08-26T06:11:18.661Z,99991.28
2022-08-26T06:13:46.719Z,99987.56
2022-08-26T06:16:18.771Z,99987.91
2022-08-26T06:18:48.119Z,99991.69
2022-08-26T06:21:19.544Z,99987.97
2022-08-26T06:23:47.590Z,99992.53
2022-08-26T06:26:17.110Z,99991.38
2022-08-26T06:28:45.587Z,99985.56
2022-08-26T06:31:14.200Z,99989.69
2022-08-26T06:33:41.803Z,99995.00
2022-08-26T06:36:09.225Z,99992.59
2022-08-26T06:38:38.159Z,99989.31
2022-08-26T06:41:08.740Z,99988.97
2022-08-26T06:43:36.114Z,99986.72
2022-08-26T06:46:06.038Z,99986.75
2022-08-26T06:48:34.976Z,99980.06
2022-08-26T06:51:04.744Z,99982.91
2022-08-26T06:53:32.314Z,99977.88
2022-08-26T06:56:03.513Z,99980.06
2022-08-26T06:58:30.860Z,99975.25
2022-08-26T07:01:03.738Z,99978.22
2022-08-26T07:03:39.759Z,99983.44
2022-08-26T07:06:08.378Z,99985.25
2022-08-26T07:08:36.041Z,99991.50
2022-08-26T07:11:06.507Z,99986.69
2022-08-26T07:13:36.303Z,99985.25
2022-08-26T07:16:04.698Z,99988.19
2022-08-26T07:18:35.118Z,99989.53
2022-08-26T07:21:06.307Z,99992.88
2022-08-26T07:23:34.730Z,99993.56
2022-08-26T07:26:07.479Z,99996.47
2022-08-26T07:28:35.478Z,99990.72
2022-08-26T07:31:05.085Z,99988.59
2022-08-26T07:33:38.329Z,99990.06
2022-08-26T07:36:08.209Z,99988.50
2022-08-26T07:38:36.681Z,99985.03
2022-08-26T07:41:06.651Z,99987.16
2022-08-26T07:43:36.495Z,99983.56
2022-08-26T07:46:07.891Z,99992.88
2022-08-26T07:48:39.773Z,99985.91
2022-08-26T07:51:14.973Z,99981.03
2022-08-26T07:53:42.578Z,99987.19
2022-08-26T07:56:11.316Z,99981.47
2022-08-26T07:58:39.060Z,99990.38
2022-08-26T08:01:06.616Z,99989.53
2022-08-26T08:03:35.174Z,99988.47
2022-08-26T08:06:02.754Z,99991.09
2022-08-26T08:08:30.913Z,99989.09
2022-08-26T08:10:58.958Z,99998.00
2022-08-26T08:13:29.081Z,99997.47
2022-08-26T08:15:56.625Z,99992.53
2022-08-26T08:18:23.855Z,99989.84
2022-08-26T08:21:04.840Z,99991.94
2022-08-26T08:23:38.797Z,99990.56
2022-08-26T08:26:09.093Z,99988.97
2022-08-26T08:28:38.259Z,99987.66
2022-08-26T08:31:05.991Z,99989.94
2022-08-26T08:33:38.637Z,99988.03
2022-08-26T08:36:13.424Z,99985.38
2022-08-26T08:38:47.873Z,99982.97
2022-08-26T08:41:35.938Z,99981.34
2022-08-26T08:44:13.459Z,99975.59
2022-08-26T08:46:42.955Z,99982.44
2022-08-26T08:49:17.291Z,99974.38
2022-08-26T08:51:54.847Z,99970.63
2022-08-26T08:54:29.493Z,99973.09
2022-08-26T08:57:08.348Z,99973.34
2022-08-26T08:59:54.168Z,99977.56
2022-08-26T09:02:37.505Z,99966.59
2022-08-26T09:05:20.399Z,99962.19
2022-08-26T09:07:58.767Z,99959.53
2022-08-26T09:10:43.980Z,99968.75
2022-08-26T09:13:25.394Z,99963.00
2022-08-26T09:19:00.149Z,99956.72
2022-08-26T09:21:28.900Z,99960.59
2022-08-26T09:23:56.912Z,99952.31
2022-08-26T09:26:29.657Z,99952.78
2022-08-26T09:29:01.083Z,99955.66
2022-08-26T09:31:31.106Z,99959.00
2022-08-26T09:34:12.989Z,99946.56
2022-08-26T09:36:47.427Z,99951.56
2022-08-26T09:39:32.590Z,99953.06
2022-08-26T09:42:07.660Z,99946.94
2022-08-26T09:44:53.222Z,99944.00
2022-08-26T09:47:23.544Z,99942.44
2022-08-26T09:50:01.848Z,99935.84
2022-08-26T09:52:30.345Z,99939.16
2022-08-26T09:55:02.138Z,99931.72
2022-08-26T09:57:33.840Z,99931.13
2022-08-26T10:00:02.496Z,99935.91
2022-08-26T10:02:39.027Z,99931.81
2022-08-26T10:05:15.329Z,99924.41
2022-08-26T10:07:46.582Z,99921.88
2022-08-26T10:10:20.173Z,99928.53
2022-08-26T10:12:59.163Z,99928.84
2022-08-26T10:15:28.352Z,99920.41
2022-08-26T10:18:04.560Z,99920.59
2022-08-26T10:20:37.856Z,99921.00
2022-08-26T10:23:10.980Z,99921.53
2022-08-26T10:25:48.933Z,99912.88
2022-08-26T10:28:22.906Z,99916.19
2022-08-26T10:30:55.493Z,99907.50
2022-08-26T10:33:24.195Z,99903.84
2022-08-26T10:35:56.353Z,99905.41
2022-08-26T10:38:28.692Z,99901.31
2022-08-26T10:41:10.350Z,99901.81
2022-08-26T10:43:45.442Z,99899.69
2022-08-26T10:46:16.763Z,99897.75
2022-08-26T10:48:48.378Z,99892.63
2022-08-26T10:51:23.915Z,99895.22
2022-08-26T10:53:57.258Z,99890.94
2022-08-26T10:56:39.935Z,99892.66
2022-08-26T10:59:15.030Z,99892.56
2022-08-26T11:01:51.038Z,99887.25
2022-08-26T11:04:44.428Z,99883.41
2022-08-26T11:07:35.482Z,99883.97
2022-08-26T11:10:06.599Z,99882.41
2022-08-26T11:12:54.598Z,99880.25
2022-08-26T11:16:07.645Z,99874.59
2022-08-26T11:18:44.339Z,99871.41
2022-08-26T11:21:42.176Z,99868.09
2022-08-26T11:24:46.016Z,99863.91
2022-08-26T11:28:01.104Z,99858.34
2022-08-26T11:30:55.461Z,99855.44
2022-08-26T11:33:55.857Z,99847.03
2022-08-26T11:36:41.817Z,99845.66
2022-08-26T11:39:20.816Z,99839.75
2022-08-26T11:41:52.667Z,99836.16
2022-08-26T11:44:22.672Z,99836.81
2022-08-26T11:46:55.686Z,99838.59
2022-08-26T11:49:23.641Z,99834.75
2022-08-26T11:51:51.513Z,99825.72
2022-08-26T11:54:29.249Z,99820.50
2022-08-26T11:57:11.673Z,99825.94
2022-08-26T11:59:41.435Z,99821.72
2022-08-26T12:02:17.736Z,99824.50
2022-08-26T12:04:48.855Z,99827.31
2022-08-26T12:07:24.124Z,99813.91
2022-08-26T12:09:56.375Z,99818.09
2022-08-26T12:12:31.750Z,99820.13
2022-08-26T12:15:22.927Z,99813.97
2022-08-26T12:18:09.450Z,99808.50
2022-08-26T12:20:39.850Z,99807.25
2022-08-26T12:23:07.530Z,99809.06
2022-08-26T12:25:36.363Z,99802.03
2022-08-26T12:28:06.501Z,99804.34
2022-08-26T12:30:33.863Z,99800.19
2022-08-26T12:33:22.950Z,99792.94
2022-08-26T12:35:56.631Z,99789.63
2022-08-26T12:38:25.823Z,99794.03
2022-08-26T12:40:55.997Z,99789.69
2022-08-26T12:43:42.418Z,99790.41
2022-08-26T12:46:13.119Z,99794.19
2022-08-26T12:48:43.027Z,99784.31
2022-08-26T12:51:21.022Z,99775.22
2022-08-26T12:53:48.570Z,99787.97
2022-08-26T12:56:27.569Z,99779.31
2022-08-26T12:59:04.273Z,99779.59
2022-08-26T13:01:43.446Z,99770.78
2022-08-26T13:04:34.074Z,99764.22
2022-08-26T13:07:19.890Z,99763.66
2022-08-26T13:09:47.973Z,99751.69
2022-08-26T13:12:26.898Z,99744.78
2022-08-26T13:14:54.169Z,99753.06
2022-08-26T13:17:21.951Z,99754.84
2022-08-26T13:19:49.329Z,99743.06
2022-08-26T13:22:20.283Z,99740.44
2022-08-26T13:24:47.960Z,99738.59
2022-08-26T13:27:15.813Z,99733.66
2022-08-26T13:29:44.787Z,99723.56
2022-08-26T13:32:16.672Z,99721.81
2022-08-26T13:34:50.631Z,99722.94
2022-08-26T13:37:20.877Z,99714.44
2022-08-26T13:39:48.684Z,99707.56
2022-08-26T13:42:16.008Z,99711.78
2022-08-26T13:44:45.111Z,99711.56
2022-08-26T13:47:12.553Z,99705.66
2022-08-26T13:49:40.063Z,99701.38
2022-08-26T13:52:07.773Z,99701.22
2022-08-26T13:54:35.046Z,99696.31
2022-08-26T13:57:02.444Z,99696.63
2022-08-26T13:59:30.403Z,99701.66
2022-08-26T14:01:59.168Z,99698.28
2022-08-26T14:04:27.093Z,99691.97
2022-08-26T14:06:55.310Z,99690.03
2022-08-26T14:09:23.028Z,99687.09
2022-08-26T14:11:54.219Z,99691.00
2022-08-26T14:14:22.797Z,99693.09
2022-08-26T14:16:59.508Z,99697.03
2022-08-26T14:19:32.069Z,99682.28
2022-08-26T14:22:01.191Z,99691.69
2022-08-26T14:24:29.908Z,99688.56
2022-08-26T14:26:57.361Z,99690.09
2022-08-26T14:29:24.768Z,99695.16
2022-08-26T14:31:52.637Z,99690.94
2022-08-26T14:34:20.155Z,99687.44
2022-08-26T14:36:49.029Z,99690.50
2022-08-26T14:39:17.042Z,99690.69
2022-08-26T14:41:53.719Z,99684.19
2022-08-26T14:44:27.654Z,99685.84
2022-08-26T14:46:55.945Z,99685.84
2022-08-26T14:49:24.919Z,99687.44
2022-08-26T14:51:58.533Z,99680.69
2022-08-26T14:54:31.038Z,99676.63
2022-08-26T14:57:02.088Z,99674.78
2022-08-26T14:59:33.065Z,99672.53
2022-08-26T15:02:01.059Z,99673.69
2022-08-26T15:04:29.224Z,99665.69
2022-08-26T15:06:59.831Z,99669.78
2022-08-26T15:09:28.083Z,99664.69
2022-08-26T15:11:55.533Z,99660.34
2022-08-26T15:14:23.799Z,99659.00
2022-08-26T15:16:55.020Z,99656.97
2022-08-26T15:19:23.826Z,99657.91
2022-08-26T15:21:52.283Z,99654.88
2022-08-26T15:24:23.850Z,99651.09
2022-08-26T15:26:53.095Z,99648.69
2022-08-26T15:29:20.888Z,99647.63
2022-08-26T15:31:48.488Z,99649.09
2022-08-26T15:34:17.332Z,99636.81
2022-08-26T15:36:45.999Z,99639.06
2022-08-26T15:39:17.014Z,99642.59
2022-08-26T15:41:46.895Z,99645.59
2022-08-26T15:44:14.610Z,99646.41
2022-08-26T15:46:42.739Z,99646.50
2022-08-26T15:49:17.761Z,99644.47
2022-08-26T15:51:48.582Z,99642.19
2022-08-26T15:54:17.926Z,99637.03
2022-08-26T15:56:47.507Z,99639.41
2022-08-26T15:59:15.878Z,99621.53
2022-08-26T16:01:44.346Z,99624.63
2022-08-26T16:04:12.063Z,99624.34
2022-08-26T16:06:41.428Z,99623.47
2022-08-26T16:09:11.109Z,99624.75
2022-08-26T16:11:42.179Z,99624.88
2022-08-26T16:14:11.273Z,99619.38
2022-08-26T16:16:39.722Z,99621.34
2022-08-26T16:19:07.822Z,99626.41
2022-08-26T16:21:35.728Z,99623.56
2022-08-26T16:24:04.454Z,99622.44
2022-08-26T16:26:35.885Z,99618.38
2022-08-26T16:29:06.171Z,99629.47
2022-08-26T16:31:35.509Z,99625.75
2022-08-26T16:34:03.078Z,99615.81
2022-08-26T16:36:30.772Z,99614.97
2022-08-26T16:38:58.203Z,99611.59
2022-08-26T16:41:27.046Z,99608.13
2022-08-26T16:43:55.724Z,99602.16
2022-08-26T16:46:24.577Z,99610.94
2022-08-26T16:48:54.515Z,99605.06
2022-08-26T16:51:23.629Z,99607.34
2022-08-26T16:53:51.890Z,99599.19
2022-08-26T16:56:22.840Z,99602.22
2022-08-26T16:58:50.574Z,99608.19
2022-08-26T17:01:18.648Z,99606.06
2022-08-26T17:03:46.410Z,99606.75
2022-08-26T17:06:15.216Z,99616.84
2022-08-26T17:08:43.524Z,99616.38
2022-08-26T17:11:11.260Z,99619.38
2022-08-26T17:13:38.879Z,99612.47
2022-08-26T17:16:08.941Z,99620.06
2022-08-26T17:18:36.928Z,99616.00
2022-08-26T17:21:06.700Z,99612.63
2022-08-26T17:23:36.150Z,99608.03
2022-08-26T17:26:04.112Z,99602.75
2022-08-26T17:28:31.457Z,99607.69
2022-08-26T17:30:59.250Z,99604.59
2022-08-26T17:33:27.694Z,99604.53
2022-08-26T17:35:55.492Z,99607.06
2022-08-26T17:38:23.959Z,99612.84
2022-08-26T17:40:53.164Z,99609.88
2022-08-26T17:43:20.514Z,99610.75
2022-08-26T17:45:50.785Z,99620.94
2022-08-26T17:48:18.439Z,99621.72
2022-08-26T17:50:49.497Z,99621.16
2022-08-26T17:53:18.883Z,99618.28
2022-08-26T17:55:46.837Z,99609.25
2022-08-26T17:58:16.099Z,99609.22
2022-08-26T18:00:44.628Z,99608.50
2022-08-26T18:03:12.218Z,99609.66
2022-08-26T18:05:39.887Z,99612.22
2022-08-26T18:08:07.887Z,99608.16
2022-08-26T18:10:35.493Z,99601.00
2022-08-26T18:13:02.921Z,99605.19
2022-08-26T18:15:31.998Z,99604.00
2022-08-26T18:17:59.488Z,99597.63
2022-08-26T18:20:26.935Z,99611.59
2022-08-26T18:22:54.824Z,99608.56
2022-08-26T18:25:22.418Z,99601.38
2022-08-26T18:27:49.640Z,99596.00
2022-08-26T18:30:20.308Z,99611.72
2022-08-26T18:32:49.848Z,99614.09
2022-08-26T18:35:18.735Z,99620.94
2022-08-26T18:37:46.164Z,99620.94
2022-08-26T18:40:14.523Z,99628.50
2022-08-26T18:42:42.463Z,99635.41
2022-08-26T18:45:10.838Z,99645.50
2022-08-26T18:47:45.349Z,99650.22
2022-08-26T18:50:14.505Z,99649.63
2022-08-26T18:52:42.592Z,99653.22
2022-08-26T18:55:10.268Z,99641.34
2022-08-26T18:57:37.685Z,99641.16
2022-08-26T19:00:06.615Z,99645.53
2022-08-26T19:02:34.479Z,99639.81
2022-08-26T19:05:02.237Z,99641.53
2022-08-26T19:07:31.342Z,99652.06
2022-08-26T19:09:59.149Z,99661.41
2022-08-26T19:12:26.976Z,99660.31
2022-08-26T19:14:54.408Z,99671.56
2022-08-26T19:17:22.656Z,99661.69
2022-08-26T19:19:50.142Z,99676.53
2022-08-26T19:22:17.705Z,99676.81
2022-08-26T19:24:46.828Z,99671.84
2022-08-26T19:27:15.058Z,99672.97
2022-08-26T19:29:42.597Z,99679.03
2022-08-26T19:32:10.474Z,99672.69
2022-08-26T19:34:37.787Z,99677.38
2022-08-26T19:37:05.269Z,99688.06
2022-08-26T19:39:32.908Z,99682.53
2022-08-26T19:42:01.749Z,99683.03
2022-08-26T19:44:29.003Z,99687.44
2022-08-26T19:46:56.623Z,99678.94
2022-08-26T19:49:23.902Z,99673.22
2022-08-26T19:51:51.084Z,99675.66
2022-08-26T19:54:18.654Z,99680.28
2022-08-26T19:56:49.246Z,99685.78
2022-08-26T19:59:18.684Z,99689.63
2022-08-26T20:01:46.435Z,99687.03
2022-08-26T20:04:28.027Z,99684.09
2022-08-26T20:06:58.789Z,99682.47
2022-08-26T20:09:28.297Z,99687.34
2022-08-26T20:11:56.975Z,99684.56
2022-08-26T20:14:26.693Z,99686.19
2022-08-26T20:16:54.299Z,99685.34
2022-08-26T20:19:21.892Z,99684.84
2022-08-26T20:21:49.848Z,99687.44
2022-08-26T20:24:18.779Z,99689.41
2022-08-26T20:26:46.580Z,99701.69
2022-08-26T20:29:17.358Z,99707.66
2022-08-26T20:31:47.140Z,99714.84
2022-08-26T20:34:17.493Z,99738.63
2022-08-26T20:36:46.613Z,99722.59
2022-08-26T20:39:15.174Z,99716.78
2022-08-26T20:41:43.096Z,99706.97
2022-08-26T20:44:12.841Z,99707.59
2022-08-26T20:46:42.831Z,99709.94
2022-08-26T20:49:12.098Z,99713.13
2022-08-26T20:51:41.411Z,99703.22
2022-08-26T20:54:09.255Z,99693.34
2022-08-26T20:56:37.448Z,99692.66
2022-08-26T20:59:06.855Z,99689.44
2022-08-26T21:01:36.243Z,99690.47
2022-08-26T21:04:06.007Z,99688.00
2022-08-26T21:06:36.377Z,99689.19
2022-08-26T21:09:06.269Z,99688.41
2022-08-26T21:11:34.491Z,99695.81
2022-08-26T21:14:06.714Z,99694.22
2022-08-26T21:16:45.478Z,99690.94
2022-08-26T21:19:16.135Z,99680.72
2022-08-26T21:21:45.192Z,99674.41
2022-08-26T21:24:13.256Z,99674.97
2022-08-26T21:26:40.845Z,99677.63
2022-08-26T21:29:08.364Z,99677.66
2022-08-26T21:31:36.802Z,99675.50
2022-08-26T21:34:04.303Z,99668.22
2022-08-26T21:36:34.769Z,99666.41
2022-08-26T21:39:08.041Z,99653.19
2022-08-26T21:41:38.346Z,99651.75
2022-08-26T21:44:06.047Z,99649.16
2022-08-26T21:46:33.612Z,99650.06
2022-08-26T21:49:03.133Z,99645.22
2022-08-26T21:51:32.776Z,99650.06
2022-08-26T21:54:01.458Z,99646.47
2022-08-26T21:56:32.663Z,99638.09
2022-08-26T21:59:01.068Z,99638.91
2022-08-26T22:01:30.687Z,99631.31
2022-08-26T22:03:58.374Z,99636.66
2022-08-26T22:06:27.896Z,99631.03
2022-08-26T22:08:56.066Z,99632.84
2022-08-26T22:11:23.854Z,99629.25
2022-08-26T22:13:53.537Z,99640.19
2022-08-26T22:16:21.122Z,99639.88
2022-08-26T22:18:48.483Z,99637.44
2022-08-26T22:21:18.481Z,99639.00
2022-08-26T22:23:46.556Z,99637.41
2022-08-26T22:26:25.491Z,99635.63
2022-08-26T22:28:59.055Z,99641.09
2022-08-26T22:31:37.505Z,99635.03
2022-08-26T22:34:07.988Z,99634.81
2022-08-26T22:36:39.831Z,99635.81
2022-08-26T22:39:12.917Z,99648.44
2022-08-26T22:41:40.450Z,99644.91
2022-08-26T22:44:09.529Z,99644.66
2022-08-26T22:46:37.747Z,99639.28
2022-08-26T22:49:05.491Z,99642.91
2022-08-26T22:51:32.814Z,99637.63
2022-08-26T22:54:00.731Z,99636.91
2022-08-26T22:56:28.042Z,99631.19
2022-08-26T22:58:55.405Z,99630.78
2022-08-26T23:01:24.491Z,99629.19
2022-08-26T23:03:51.930Z,99623.56
2022-08-26T23:06:19.444Z,99625.44
2022-08-26T23:08:47.145Z,99629.41
2022-08-26T23:11:14.838Z,99629.53
2022-08-26T23:13:42.466Z,99631.50
2022-08-26T23:16:12.024Z,99635.88
2022-08-26T23:18:41.756Z,99645.22
2022-08-26T23:21:09.678Z,99639.28
2022-08-26T23:23:37.949Z,99643.44
2022-08-26T23:26:06.738Z,99645.75
2022-08-26T23:28:34.767Z,99643.22
2022-08-26T23:31:03.084Z,99637.53
2022-08-26T23:33:30.545Z,99639.97
2022-08-26T23:36:08.132Z,99650.44
2022-08-26T23:38:36.889Z,99643.09
2022-08-26T23:41:04.724Z,99641.44
2022-08-26T23:43:32.081Z,99636.50
2022-08-26T23:45:59.804Z,99633.22
2022-08-26T23:48:27.150Z,99629.84
2022-08-26T23:50:54.539Z,99627.19
2022-08-26T23:53:23.756Z,99629.00
2022-08-26T23:55:52.450Z,99630.50
2022-08-26T23:58:21.338Z,99626.25
